Flight Track Log - Related Links

Times and Time Zones

All times are in EDT time to prevent confusion due to time zone crossing. See the N1655M flight status page for this flight to view local times or setup timezone preferences in your user account.

Time Position Orientation Groundspeed Altitude Reporting Facility
EDT Latitude Longitude Course Direction KTS MPH feet Rate Location/Type
Tue 04:42:42 PM 46.3664 -87.3492 133° Southeast 153 176 3,500  Level Minneapolis Center
Tue 04:43:44 PM 46.3356 -87.3017 133° Southeast 159 183 5,600 2,081 Climbing Minneapolis Center
Tue 04:44:46 PM 46.2947 -87.2703 152° Southeast 164 189 7,800 1,935 Climbing Minneapolis Center
Tue 04:45:48 PM 46.2483 -87.2325 151° Southeast 175 201 9,600 1,887 Climbing Minneapolis Center
Tue 04:46:50 PM 46.2031 -87.1950 150° Southeast 183 211 11,700 2,081 Climbing Minneapolis Center
Tue 04:47:52 PM 46.1592 -87.1597 151° Southeast 176 203 13,900 1,935 Climbing Minneapolis Center
Tue 04:48:54 PM 46.1156 -87.1239 150° Southeast 176 203 15,700 1,742 Climbing Minneapolis Center
Tue 04:49:56 PM 46.0706 -87.0867 150° Southeast 182 209 17,500 1,597 Climbing Minneapolis Center
Tue 04:50:58 PM 46.0278 -87.0514 150° Southeast 180 207 19,000 1,403 Climbing Minneapolis Center
Tue 04:52:00 PM 45.9833 -87.0158 151° Southeast 182 209 20,400 1,306 Climbing Minneapolis Center
Tue 04:53:02 PM 45.9378 -86.9783 150° Southeast 188 216 21,700 1,147 Climbing Minneapolis Center
Tue 04:54:16 PM 45.8828 -86.9358 152° Southeast 188 216 23,000 569 Climbing Minneapolis Center
Tue 04:55:19 PM 45.8161 -86.8839 151° Southeast 223 257 23,000  Level Minneapolis Center
Tue 04:56:21 PM 45.7539 -86.8331 150° Southeast 251 289 23,000  Level Minneapolis Center
Tue 04:57:23 PM 45.6917 -86.7822 150° Southeast 258 297 23,000  Level Minneapolis Center
Tue 04:58:25 PM 45.6267 -86.7331 152° Southeast 263 303 23,000  Level Minneapolis Center
Tue 04:59:27 PM 45.5628 -86.6794 150° Southeast 265 305 23,000  Level Minneapolis Center
Tue 05:00:29 PM 45.4853 -86.6183 151° Southeast 265 305 23,000  Level Minneapolis Center
Tue 05:01:31 PM 45.4192 -86.5675 152° Southeast 270 311 23,000  Level Minneapolis Center
Tue 05:02:33 PM 45.3547 -86.5175 151° Southeast 267 307 23,000  Level Minneapolis Center
Tue 05:03:36 PM 45.2892 -86.4656 151° Southeast 268 308 23,000  Level Minneapolis Center
Tue 05:04:38 PM 45.2247 -86.4150 151° Southeast 267 307 23,000  Level Minneapolis Center
Tue 05:05:40 PM 45.1561 -86.3583 150° Southeast 273 314 23,000  Level Minneapolis Center
Tue 05:06:42 PM 45.0908 -86.3075 151° Southeast 272 313 23,000  Level Minneapolis Center
Tue 05:07:44 PM 45.0131 -86.2467 151° Southeast 268 308 23,000  Level Minneapolis Center
Tue 05:08:46 PM 44.9469 -86.1967 152° Southeast 268 308 23,000  Level Minneapolis Center
Tue 05:09:48 PM 44.8831 -86.1461 151° Southeast 266 306 23,000  Level Minneapolis Center
Tue 05:10:50 PM 44.8169 -86.0978 153° Southeast 267 307 23,000  Level Minneapolis Center
Tue 05:11:52 PM 44.7514 -86.0464 151° Southeast 269 310 23,000  Level Minneapolis Center
Tue 05:12:54 PM 44.6861 -85.9964 151° Southeast 268 308 23,000  Level Minneapolis Center
Tue 05:13:56 PM 44.6172 -85.9439 152° Southeast 266 306 23,000  Level Minneapolis Center
Tue 05:14:58 PM 44.5394 -85.8847 152° Southeast 265 305 23,000  Level Minneapolis Center
Tue 05:16:01 PM 44.4744 -85.8347 151° Southeast 266 306 23,000  Level Minneapolis Center
Tue 05:17:03 PM 44.4083 -85.7842 151° Southeast 271 312 23,000  Level Minneapolis Center
Tue 05:18:05 PM 44.3433 -85.7350 152° Southeast 268 308 23,000  Level Minneapolis Center
Tue 05:19:07 PM 44.2775 -85.6853 152° Southeast 268 308 23,000  Level Minneapolis Center
Tue 05:20:09 PM 44.2119 -85.6367 152° Southeast 269 310 23,000  Level Minneapolis Center
Tue 05:21:11 PM 44.1331 -85.5772 152° Southeast 269 310 23,000  Level Minneapolis Center
Tue 05:22:13 PM 44.0678 -85.5281 152° Southeast 268 308 23,000  Level Minneapolis Center
Tue 05:23:15 PM 44.0058 -85.4825 152° Southeast 267 307 23,000  Level Minneapolis Center
Tue 05:24:17 PM 43.9417 -85.4344 152° Southeast 264 304 23,000 -484 Level Minneapolis Center
Tue 05:25:19 PM 43.8744 -85.3847 152° Southeast 270 311 22,000 -1,306 Descending Minneapolis Center
Tue 05:26:21 PM 43.7858 -85.3189 152° Southeast 293 337 20,300 -1,440 Descending Minneapolis Center
Tue 05:27:24 PM 43.7117 -85.2636 152° Southeast 301 346 19,000 -624 Descending Minneapolis Center
Tue 05:28:26 PM 43.6425 -85.2119 152° Southeast 290 334 19,000 -483 Level Minneapolis Center
Tue 05:29:53 PM 43.5492 -85.1439 152° Southeast 275 316 17,800 -969 Descending Minneapolis Center
Tue 05:31:07 PM 43.4739 -85.0894 152° Southeast 293 337 16,400 -1,368 Descending Minneapolis Center
Tue 05:32:09 PM 43.3847 -85.0269 153° Southeast 299 344 14,700 -1,645 Descending Minneapolis Center
Tue 05:33:11 PM 43.2947 -84.9839 161° South 288 331 13,000 -1,448 Descending Minneapolis Center
Tue 05:33:36 PM 43.2664 -84.9714 162° South 281 323 12,600 -930 Descending Chicago Center
Tue 05:34:22 PM 43.2136 -84.9450 160° South 280 322 11,900 -914 Descending Cleveland Center
Tue 05:35:21 PM 43.1564 -84.9125 157° South 252 290 11,000 -950 Descending Cleveland Center
Tue 05:36:22 PM 43.0975 -84.8686 151° Southeast 236 272 10,000 -951 Descending Cleveland Center
Tue 05:36:43 PM 43.0861 -84.8592 149° Southeast 237 273 9,700 -1,373 Descending Chicago Center
Tue 05:37:45 PM 43.0261 -84.8111 150° Southeast 250 288 8,100 -1,790 Descending Chicago Center
Tue 05:38:47 PM 42.9572 -84.7506 147° Southeast 247 284 6,000 -1,742 Descending Chicago Center
Tue 05:39:49 PM 42.9039 -84.7031 147° Southeast 234 269 4,500 -1,452 Descending Chicago Center
Tue 05:40:51 PM 42.8542 -84.6672 152° Southeast 219 252 3,000 -823 Descending Chicago Center
Tue 05:41:53 PM 42.8061 -84.6364 155° Southeast 215 247 2,800 -194 Descending Chicago Center

Login

Don't have an account? Register now (free) for customized features, flight alerts, and more!